Time;durP1;ratioP1;P1;durP2;ratioP2;P2;SDS_P1;SDS_P2;PMS_P1;PMS_P2;Temp;Humidity;BMP_temperature;BMP_pressure;BME280_temperature;BME280_humidity;BME280_pressure;Samples;Min_cycle;Max_cycle;Signal;HPM_P1;HPM_P2
2023/05/31 00:00:02;;;;;;;6.75;5.72;;;18.50;51.30;;;;;;4991635;28;20525;-46
2023/05/31 00:02:30;;;;;;;5.00;4.57;;;18.50;51.40;;;;;;4987895;28;20138;-50
2023/05/31 00:04:57;;;;;;;5.78;5.18;;;18.50;51.40;;;;;;4971146;28;20058;-46
2023/05/31 00:07:24;;;;;;;6.50;4.93;;;18.50;51.40;;;;;;4975911;28;20167;-47
2023/05/31 00:09:53;;;;;;;6.13;4.90;;;18.40;51.40;;;;;;4984755;28;20105;-46
2023/05/31 00:12:20;;;;;;;5.32;4.88;;;18.40;51.50;;;;;;4971207;28;20550;-45
2023/05/31 00:14:47;;;;;;;8.60;5.22;;;18.30;51.40;;;;;;4986142;28;20046;-49
2023/05/31 00:17:13;;;;;;;6.07;5.15;;;18.30;51.60;;;;;;4985286;28;20126;-46
2023/05/31 00:20:00;;;;;;;5.85;5.32;;;18.20;51.60;;;;;;4973597;28;20042;-47
2023/05/31 00:22:29;;;;;;;5.78;5.18;;;18.20;51.60;;;;;;4990983;28;20109;-49
2023/05/31 00:24:57;;;;;;;7.32;6.00;;;18.10;51.70;;;;;;4972865;28;20123;-46
2023/05/31 00:27:24;;;;;;;7.15;5.60;;;18.00;51.80;;;;;;4974897;28;20071;-46
2023/05/31 00:29:56;;;;;;;7.65;6.20;;;18.00;52.00;;;;;;4969443;28;20507;-46
2023/05/31 00:32:25;;;;;;;6.93;6.07;;;17.90;52.40;;;;;;4967260;28;20130;-47
2023/05/31 00:34:52;;;;;;;5.57;5.07;;;17.90;52.20;;;;;;4953454;28;20503;-46
2023/05/31 00:37:23;;;;;;;7.72;5.95;;;17.90;52.30;;;;;;4990009;28;20899;-47
2023/05/31 00:39:51;;;;;;;6.72;5.82;;;17.80;52.50;;;;;;4991965;28;20134;-47
2023/05/31 00:42:20;;;;;;;5.97;5.38;;;17.80;52.60;;;;;;4956513;28;20137;-48
2023/05/31 00:44:47;;;;;;;6.57;5.88;;;17.80;52.70;;;;;;4986539;28;20027;-50
2023/05/31 00:47:16;;;;;;;9.23;6.45;;;17.70;52.60;;;;;;4987040;28;20125;-47
2023/05/31 00:49:42;;;;;;;6.05;5.45;;;17.70;52.60;;;;;;4982375;28;20030;-46
2023/05/31 00:52:12;;;;;;;6.85;5.47;;;17.60;52.60;;;;;;4972568;28;20417;-48
2023/05/31 00:54:39;;;;;;;7.15;6.45;;;17.60;52.70;;;;;;4978633;28;20081;-47
2023/05/31 00:57:18;;;;;;;8.45;6.15;;;17.50;52.60;;;;;;4984872;28;20419;-45
2023/05/31 00:59:47;;;;;;;6.57;5.43;;;17.50;52.60;;;;;;4973711;28;20113;-46
2023/05/31 01:02:17;;;;;;;6.93;6.10;;;17.40;52.60;;;;;;4961878;28;20117;-45
2023/05/31 01:04:48;;;;;;;6.47;5.65;;;17.40;52.70;;;;;;4970802;28;20413;-48
2023/05/31 01:07:15;;;;;;;7.05;6.20;;;17.30;52.90;;;;;;4988534;28;20585;-46
2023/05/31 01:09:43;;;;;;;6.63;5.80;;;17.20;53.00;;;;;;4990669;28;20035;-47
2023/05/31 01:12:21;;;;;;;6.80;6.07;;;17.20;53.10;;;;;;4949162;28;20035;-47
2023/05/31 01:15:17;;;;;;;6.85;6.25;;;17.20;53.90;;;;;;4963269;28;20054;-45
2023/05/31 01:18:03;;;;;;;7.10;5.80;;;17.20;54.10;;;;;;4984277;28;20073;-48
2023/05/31 01:20:34;;;;;;;7.00;5.95;;;17.10;53.70;;;;;;4962753;28;20046;-47
2023/05/31 01:23:37;;;;;;;9.43;6.65;;;17.10;53.60;;;;;;4969122;28;20046;-46
2023/05/31 01:26:18;;;;;;;7.47;6.75;;;17.10;54.50;;;;;;4968650;28;20053;-46
2023/05/31 01:28:49;;;;;;;8.13;7.10;;;17.00;54.30;;;;;;4990879;28;20058;-48
2023/05/31 01:31:20;;;;;;;12.45;8.20;;;17.00;54.40;;;;;;4989135;28;20653;-46
2023/05/31 01:33:51;;;;;;;9.15;6.90;;;17.00;54.30;;;;;;4957925;28;20106;-49
2023/05/31 01:36:23;;;;;;;7.20;6.60;;;16.90;54.30;;;;;;4984839;28;20042;-45
2023/05/31 01:38:52;;;;;;;6.65;5.93;;;16.90;54.20;;;;;;4973583;28;20056;-47
2023/05/31 01:41:23;;;;;;;8.43;7.60;;;16.90;54.20;;;;;;4979596;28;20179;-45
2023/05/31 01:43:53;;;;;;;8.07;7.18;;;16.90;54.30;;;;;;4955488;28;20100;-45
2023/05/31 01:46:24;;;;;;;8.23;7.43;;;16.80;54.50;;;;;;4989030;28;20414;-49
2023/05/31 01:48:55;;;;;;;7.35;6.45;;;16.80;54.50;;;;;;4986058;28;20038;-46
2023/05/31 01:51:30;;;;;;;7.43;6.72;;;16.80;54.60;;;;;;4973645;28;20046;-47
2023/05/31 01:53:57;;;;;;;7.00;6.30;;;16.80;54.60;;;;;;4965953;28;20043;-46
2023/05/31 01:56:31;;;;;;;8.93;7.20;;;16.80;55.20;;;;;;4965642;28;20042;-46
2023/05/31 01:58:59;;;;;;;7.07;6.38;;;16.80;54.60;;;;;;4972196;28;20282;-46
2023/05/31 02:01:28;;;;;;;8.88;7.07;;;16.70;54.60;;;;;;4972707;28;20046;-46
2023/05/31 02:03:56;;;;;;;8.13;7.32;;;16.70;54.60;;;;;;4964750;28;20046;-49
2023/05/31 02:06:28;;;;;;;10.55;7.22;;;16.70;54.70;;;;;;4972674;28;20078;-46
2023/05/31 02:08:56;;;;;;;7.50;6.70;;;16.70;54.70;;;;;;4981197;28;20042;-47
2023/05/31 02:11:27;;;;;;;8.98;7.22;;;16.60;54.90;;;;;;4964387;28;20084;-46
2023/05/31 02:13:55;;;;;;;7.43;6.65;;;16.60;55.20;;;;;;4957322;28;20054;-45
2023/05/31 02:16:27;;;;;;;11.10;7.40;;;16.60;55.20;;;;;;4988499;28;20092;-47
2023/05/31 02:18:58;;;;;;;9.00;6.53;;;16.60;55.30;;;;;;4967492;28;20114;-46
2023/05/31 02:21:27;;;;;;;7.47;6.57;;;16.50;55.10;;;;;;4972607;28;20074;-47
2023/05/31 02:24:06;;;;;;;7.63;6.88;;;16.50;55.60;;;;;;4965624;28;20082;-45
2023/05/31 02:26:36;;;;;;;8.13;6.97;;;16.50;55.80;;;;;;4969455;28;20504;-47
2023/05/31 02:29:06;;;;;;;8.02;7.13;;;16.50;55.50;;;;;;4968225;28;20050;-47
2023/05/31 02:31:35;;;;;;;9.07;7.50;;;16.40;55.90;;;;;;4985686;28;20035;-46
2023/05/31 02:34:04;;;;;;;7.85;6.82;;;16.50;55.70;;;;;;4955949;28;20066;-49
2023/05/31 02:36:31;;;;;;;8.93;7.35;;;16.40;55.70;;;;;;4972314;28;20098;-47
2023/05/31 02:38:58;;;;;;;8.32;7.45;;;16.40;55.60;;;;;;4988741;28;20042;-46
2023/05/31 02:41:25;;;;;;;8.55;7.05;;;16.40;55.70;;;;;;4988973;28;20058;-46
2023/05/31 02:44:00;;;;;;;7.78;6.65;;;16.40;55.70;;;;;;4951755;28;20055;-45
2023/05/31 02:46:27;;;;;;;7.63;6.82;;;16.30;55.60;;;;;;4966598;28;20412;-45
2023/05/31 02:48:57;;;;;;;9.05;7.88;;;16.30;55.50;;;;;;4989242;28;20101;-47
2023/05/31 02:51:26;;;;;;;8.15;7.35;;;16.30;55.70;;;;;;4973920;28;20125;-46
2023/05/31 02:54:22;;;;;;;6.97;6.30;;;16.30;55.50;;;;;;4971322;28;20050;-45
2023/05/31 02:56:51;;;;;;;8.23;7.32;;;16.20;55.40;;;;;;4983834;28;20097;-46
2023/05/31 02:59:23;;;;;;;8.43;7.40;;;16.20;55.80;;;;;;4990909;28;20046;-47
2023/05/31 03:02:09;;;;;;;7.97;7.25;;;16.20;55.90;;;;;;4974145;28;20054;-46
2023/05/31 03:04:44;;;;;;;8.02;7.15;;;16.10;55.80;;;;;;4968240;28;20395;-47
2023/05/31 03:07:16;;;;;;;8.80;7.07;;;16.10;55.90;;;;;;4973927;28;20042;-47
2023/05/31 03:09:44;;;;;;;8.95;7.22;;;16.10;55.90;;;;;;4970500;28;20443;-48
2023/05/31 03:12:13;;;;;;;7.88;6.70;;;16.00;56.00;;;;;;4971799;28;20049;-45
2023/05/31 03:14:41;;;;;;;10.55;7.40;;;16.00;56.30;;;;;;4969282;28;20052;-47
2023/05/31 03:17:10;;;;;;;9.30;7.20;;;16.00;56.50;;;;;;4972907;28;20046;-47
2023/05/31 03:19:37;;;;;;;8.18;7.35;;;15.90;56.40;;;;;;4974801;28;20046;-46
2023/05/31 03:22:16;;;;;;;8.20;7.40;;;15.90;56.10;;;;;;4957804;28;20058;-46
2023/05/31 03:24:43;;;;;;;8.75;7.93;;;15.90;56.40;;;;;;4957996;28;20386;-45
2023/05/31 03:27:10;;;;;;;6.93;6.30;;;15.90;56.30;;;;;;4958562;28;20046;-45
2023/05/31 03:29:40;;;;;;;7.28;6.55;;;15.80;56.20;;;;;;4988677;28;20034;-50
2023/05/31 03:32:07;;;;;;;8.52;7.32;;;15.80;56.20;;;;;;4989041;28;20030;-46
2023/05/31 03:34:34;;;;;;;7.13;6.40;;;15.80;56.30;;;;;;4955957;28;20449;-47
2023/05/31 03:37:02;;;;;;;7.88;7.07;;;15.80;56.20;;;;;;4971006;28;20085;-47
2023/05/31 03:39:51;;;;;;;8.43;7.60;;;15.70;56.20;;;;;;4991905;28;20065;-47
2023/05/31 03:42:31;;;;;;;8.45;7.57;;;15.70;56.00;;;;;;4979125;28;20101;-48
2023/05/31 03:45:01;;;;;;;9.83;7.23;;;15.70;56.10;;;;;;4969073;28;20049;-45
2023/05/31 03:47:30;;;;;;;8.48;7.28;;;15.70;56.50;;;;;;4974078;28;20050;-45
2023/05/31 03:50:04;;;;;;;8.23;7.30;;;15.60;56.20;;;;;;4963822;28;20077;-45
2023/05/31 03:52:38;;;;;;;7.88;7.07;;;15.60;56.20;;;;;;4959396;28;20054;-45
2023/05/31 03:55:05;;;;;;;8.48;6.63;;;15.50;56.00;;;;;;4955633;28;20074;-50
2023/05/31 03:57:32;;;;;;;8.85;6.57;;;15.50;56.00;;;;;;4970427;28;20124;-47
2023/05/31 03:59:59;;;;;;;8.30;6.97;;;15.50;56.20;;;;;;4974319;28;20070;-47
2023/05/31 04:02:29;;;;;;;8.00;7.28;;;15.50;56.60;;;;;;4989977;28;20137;-46
2023/05/31 04:04:58;;;;;;;8.35;6.78;;;15.40;56.70;;;;;;4969245;28;20047;-47
2023/05/31 04:07:28;;;;;;;;;;;15.40;56.60;;;;;;4991898;28;20113;-48
2023/05/31 04:09:57;;;;;;;7.75;6.72;;;15.50;56.40;;;;;;4969558;28;19944;-48
2023/05/31 04:12:26;;;;;;;7.78;6.97;;;15.40;56.20;;;;;;4972198;28;20444;-46
2023/05/31 04:14:56;;;;;;;8.00;7.20;;;15.40;56.30;;;;;;4971070;28;20126;-48
2023/05/31 04:17:27;;;;;;;7.68;6.88;;;15.40;56.70;;;;;;4974589;28;20054;-50
2023/05/31 04:19:56;;;;;;;9.10;7.20;;;15.40;57.10;;;;;;4962814;28;20065;-48
2023/05/31 04:22:26;;;;;;;7.35;6.57;;;15.40;57.30;;;;;;4961749;28;20609;-47
2023/05/31 04:24:56;;;;;;;8.20;6.95;;;15.30;57.20;;;;;;4967336;28;20050;-47
2023/05/31 04:27:32;;;;;;;9.07;7.75;;;15.40;57.50;;;;;;4964669;28;20061;-48
2023/05/31 04:30:04;;;;;;;8.00;7.20;;;15.40;57.80;;;;;;4974475;28;20038;-46
2023/05/31 04:32:33;;;;;;;10.55;7.55;;;15.40;57.90;;;;;;4966357;28;20047;-47
2023/05/31 04:35:03;;;;;;;9.27;7.75;;;15.40;58.40;;;;;;4961875;28;20077;-50
2023/05/31 04:37:34;;;;;;;8.57;7.68;;;15.50;58.70;;;;;;4961662;28;20047;-49
2023/05/31 04:40:09;;;;;;;11.25;8.73;;;15.40;58.70;;;;;;4973679;28;20050;-47
2023/05/31 04:42:36;;;;;;;8.70;7.75;;;15.50;59.20;;;;;;4957860;28;20046;-46
2023/05/31 04:45:04;;;;;;;9.85;8.00;;;15.50;59.00;;;;;;4986227;28;20533;-48
2023/05/31 04:47:36;;;;;;;8.23;7.40;;;15.60;59.40;;;;;;4970332;28;20156;-46
2023/05/31 04:50:04;;;;;;;9.82;7.47;;;15.60;59.50;;;;;;4961047;28;20049;-46
2023/05/31 04:52:32;;;;;;;10.27;8.45;;;15.60;59.70;;;;;;4974742;28;20240;-46
2023/05/31 04:55:00;;;;;;;8.50;7.57;;;15.70;59.80;;;;;;4974631;28;20054;-48
2023/05/31 04:57:28;;;;;;;8.93;7.43;;;15.80;60.00;;;;;;4982564;28;20150;-48
2023/05/31 04:59:59;;;;;;;9.10;8.17;;;15.80;60.10;;;;;;4972955;28;20046;-48
2023/05/31 05:02:26;;;;;;;8.82;7.35;;;15.90;60.00;;;;;;4957474;28;20331;-45
2023/05/31 05:04:54;;;;;;;8.57;7.65;;;15.90;60.20;;;;;;4969600;28;20050;-49
2023/05/31 05:07:21;;;;;;;9.07;7.75;;;16.00;60.10;;;;;;4967040;28;20046;-49
2023/05/31 05:09:48;;;;;;;8.73;7.78;;;16.00;60.10;;;;;;4962450;28;20098;-48
2023/05/31 05:12:15;;;;;;;9.48;6.90;;;16.10;60.00;;;;;;4970513;28;20095;-48
2023/05/31 05:14:44;;;;;;;10.05;8.02;;;16.20;60.00;;;;;;4963080;28;20074;-47
2023/05/31 05:17:11;;;;;;;8.60;7.70;;;16.20;60.10;;;;;;4958983;28;20046;-45
2023/05/31 05:19:38;;;;;;;10.88;7.68;;;16.30;60.20;;;;;;4956300;28;20046;-50
2023/05/31 05:22:05;;;;;;;9.02;7.82;;;16.30;59.90;;;;;;4955457;28;20141;-48
2023/05/31 05:24:32;;;;;;;9.95;7.57;;;16.40;60.00;;;;;;4961469;28;20487;-49
2023/05/31 05:26:59;;;;;;;10.02;7.07;;;16.40;59.90;;;;;;5016978;23;20057;-45
2023/05/31 05:29:26;;;;;;;8.20;7.13;;;16.50;60.00;;;;;;5009392;28;20048;-42
2023/05/31 05:31:53;;;;;;;8.73;7.68;;;16.50;59.80;;;;;;5028953;28;20037;-44
2023/05/31 05:34:20;;;;;;;8.20;7.15;;;16.60;59.80;;;;;;5003029;28;20038;-44
2023/05/31 05:36:48;;;;;;;10.65;7.97;;;16.60;59.80;;;;;;5007765;28;20041;-43
2023/05/31 05:39:14;;;;;;;10.80;8.18;;;16.60;59.80;;;;;;5006213;28;20045;-43
2023/05/31 05:41:44;;;;;;;8.95;7.47;;;16.70;59.90;;;;;;5016211;28;20046;-44
2023/05/31 05:44:12;;;;;;;11.15;8.05;;;16.70;59.70;;;;;;5017019;28;20141;-43
2023/05/31 05:46:39;;;;;;;9.48;7.93;;;16.80;59.90;;;;;;4992496;28;20038;-46
2023/05/31 05:49:06;;;;;;;10.40;8.38;;;16.80;59.80;;;;;;5007172;28;20048;-44
2023/05/31 05:51:33;;;;;;;11.50;7.90;;;16.80;59.80;;;;;;5006687;28;20046;-48
2023/05/31 05:54:05;;;;;;;10.60;7.18;;;16.90;59.80;;;;;;5009742;28;20042;-45
2023/05/31 05:56:32;;;;;;;12.25;7.57;;;16.90;59.60;;;;;;5024495;28;20068;-45
2023/05/31 05:59:00;;;;;;;9.80;7.38;;;17.00;59.60;;;;;;5012025;28;20037;-44
2023/05/31 06:01:48;;;;;;;10.63;8.13;;;17.00;59.60;;;;;;5021526;28;20056;-46
2023/05/31 06:04:17;;;;;;;9.52;7.82;;;17.10;59.60;;;;;;5006805;28;20069;-44
2023/05/31 06:06:44;;;;;;;11.07;7.68;;;17.10;59.40;;;;;;5010970;28;20041;-47
2023/05/31 06:09:12;;;;;;;10.93;8.30;;;17.20;59.40;;;;;;5028907;28;20498;-44
2023/05/31 06:11:40;;;;;;;10.25;7.10;;;17.20;59.20;;;;;;5026615;28;20468;-49
2023/05/31 06:14:06;;;;;;;10.05;7.55;;;17.20;59.30;;;;;;5012771;28;20398;-44
2023/05/31 06:16:38;;;;;;;10.40;7.18;;;17.30;59.30;;;;;;5010323;28;20041;-46
2023/05/31 06:19:05;;;;;;;9.13;7.50;;;17.30;59.10;;;;;;5008965;28;20083;-47
2023/05/31 06:21:32;;;;;;;11.50;8.52;;;17.30;59.20;;;;;;5008856;28;20514;-45
2023/05/31 06:24:02;;;;;;;10.88;7.80;;;17.40;59.30;;;;;;5007901;28;20088;-45
2023/05/31 06:26:30;;;;;;;11.68;8.35;;;17.40;59.50;;;;;;5017213;28;20042;-46
2023/05/31 06:29:00;;;;;;;11.43;7.25;;;17.50;59.40;;;;;;5017755;28;20077;-44
2023/05/31 06:31:51;;;;;;;9.88;7.03;;;17.50;59.40;;;;;;5006065;28;20056;-45
2023/05/31 06:34:21;;;;;;;10.77;6.97;;;17.60;59.30;;;;;;5010598;28;20065;-45
2023/05/31 06:36:50;;;;;;;10.68;7.03;;;17.60;59.10;;;;;;5015305;28;20045;-45
2023/05/31 06:39:17;;;;;;;10.65;7.40;;;17.70;58.90;;;;;;5032915;28;20099;-45
2023/05/31 06:41:44;;;;;;;9.68;7.90;;;17.70;58.90;;;;;;5014614;28;20087;-45
2023/05/31 06:44:41;;;;;;;9.60;7.25;;;17.80;58.90;;;;;;5016408;28;20053;-45
2023/05/31 06:47:38;;;;;;;11.90;7.38;;;17.80;58.70;;;;;;5014402;28;20041;-43
2023/05/31 06:50:43;;;;;;;9.63;7.10;;;17.90;58.90;;;;;;5027967;28;20048;-45
2023/05/31 06:53:28;;;;;;;9.90;7.85;;;17.90;58.50;;;;;;5032616;28;20056;-44
2023/05/31 06:56:03;;;;;;;10.75;7.45;;;18.00;58.40;;;;;;5028936;28;20038;-45
2023/05/31 06:58:32;;;;;;;10.73;7.72;;;18.00;58.40;;;;;;5014675;28;20107;-43
2023/05/31 07:00:59;;;;;;;12.35;7.47;;;18.10;58.60;;;;;;5014882;28;20049;-44
2023/05/31 07:03:27;;;;;;;8.73;6.78;;;18.10;58.60;;;;;;5008963;28;20133;-44
2023/05/31 07:05:53;;;;;;;10.07;7.90;;;18.20;58.30;;;;;;5014858;28;20045;-45
2023/05/31 07:08:21;;;;;;;10.40;7.50;;;18.20;58.20;;;;;;5030906;28;20470;-45
2023/05/31 07:11:06;;;;;;;9.27;7.18;;;18.30;58.00;;;;;;5026170;28;20056;-47
2023/05/31 07:13:33;;;;;;;10.63;7.50;;;18.30;57.80;;;;;;5010231;28;20104;-45
2023/05/31 07:15:59;;;;;;;10.25;6.43;;;18.40;57.90;;;;;;5032673;28;20049;-46
2023/05/31 07:18:26;;;;;;;10.10;6.63;;;18.40;57.90;;;;;;5032276;28;20072;-44
2023/05/31 07:20:56;;;;;;;11.20;6.63;;;18.50;57.90;;;;;;5014377;28;20099;-44
2023/05/31 07:23:24;;;;;;;11.82;6.47;;;18.50;57.70;;;;;;5029208;28;20132;-46
2023/05/31 07:25:51;;;;;;;9.57;6.38;;;18.60;58.10;;;;;;5027008;28;20052;-48
2023/05/31 07:28:17;;;;;;;12.25;6.97;;;18.70;57.60;;;;;;5031877;28;20510;-45
2023/05/31 07:30:44;;;;;;;8.15;6.35;;;18.70;57.60;;;;;;5032445;28;20083;-45
2023/05/31 07:33:11;;;;;;;8.50;6.50;;;18.80;58.50;;;;;;5029339;28;20044;-46
2023/05/31 07:35:38;;;;;;;9.93;6.43;;;18.80;57.40;;;;;;5031014;28;20528;-43
2023/05/31 07:38:05;;;;;;;10.13;6.53;;;18.90;57.10;;;;;;5031291;28;20041;-45
2023/05/31 07:40:32;;;;;;;8.30;6.03;;;19.00;56.80;;;;;;5030609;28;20048;-46
2023/05/31 07:42:58;;;;;;;11.75;6.53;;;19.00;56.70;;;;;;5029069;28;20069;-47
2023/05/31 07:45:25;;;;;;;9.73;6.10;;;19.10;56.50;;;;;;5032461;28;20061;-45
2023/05/31 07:47:52;;;;;;;8.85;6.40;;;19.10;56.50;;;;;;5031505;28;20038;-44
2023/05/31 07:50:19;;;;;;;11.88;6.38;;;19.20;56.40;;;;;;5030922;28;20042;-44
2023/05/31 07:52:49;;;;;;;8.43;6.50;;;19.30;56.80;;;;;;5028364;28;20124;-45
2023/05/31 07:55:17;;;;;;;7.57;5.93;;;19.30;56.60;;;;;;5013551;28;20063;-44
2023/05/31 07:57:44;;;;;;;8.18;5.40;;;19.40;56.40;;;;;;5030864;28;20481;-47
2023/05/31 08:00:13;;;;;;;8.63;6.40;;;19.50;56.10;;;;;;5031857;28;20454;-45
2023/05/31 08:02:41;;;;;;;12.93;7.03;;;19.60;56.00;;;;;;5028212;28;20524;-48
2023/05/31 08:05:08;;;;;;;8.27;5.65;;;19.60;56.00;;;;;;5017979;28;20475;-47
2023/05/31 08:07:35;;;;;;;9.52;6.03;;;19.70;56.00;;;;;;5029632;28;20505;-44
2023/05/31 08:10:03;;;;;;;8.68;6.35;;;19.70;55.80;;;;;;5027215;28;20555;-44
2023/05/31 08:12:30;;;;;;;7.90;5.38;;;19.80;55.80;;;;;;5030191;28;20445;-44
2023/05/31 08:14:58;;;;;;;6.95;5.18;;;19.90;55.30;;;;;;5028401;28;20120;-45
2023/05/31 08:17:26;;;;;;;8.88;6.00;;;19.90;55.20;;;;;;5030117;28;20037;-47
2023/05/31 08:19:53;;;;;;;8.52;5.85;;;20.00;55.00;;;;;;5022541;28;20062;-44
2023/05/31 08:22:21;;;;;;;7.28;5.60;;;20.00;55.10;;;;;;5019948;28;20113;-44
2023/05/31 08:24:49;;;;;;;8.90;5.55;;;20.10;55.30;;;;;;5025088;28;20043;-45
2023/05/31 08:27:17;;;;;;;7.63;6.13;;;20.10;55.10;;;;;;5030313;28;20041;-48
2023/05/31 08:29:43;;;;;;;9.13;4.82;;;20.20;55.00;;;;;;5030627;28;20068;-46
2023/05/31 08:32:10;;;;;;;8.88;5.93;;;20.20;54.50;;;;;;5028705;28;20033;-47
2023/05/31 08:34:37;;;;;;;8.90;5.78;;;20.30;54.50;;;;;;5031240;28;20033;-47
2023/05/31 08:37:04;;;;;;;15.20;5.78;;;20.40;54.50;;;;;;5024318;28;20592;-47
2023/05/31 08:39:33;;;;;;;7.40;5.47;;;20.40;54.40;;;;;;4998593;28;20080;-45
2023/05/31 08:42:02;;;;;;;8.90;5.10;;;20.50;54.40;;;;;;5021035;28;20499;-46
2023/05/31 08:44:30;;;;;;;8.05;5.00;;;20.60;53.90;;;;;;5020339;28;20461;-45
2023/05/31 08:47:04;;;;;;;18.25;6.75;;;20.60;54.50;;;;;;5017325;28;20041;-47
2023/05/31 08:49:33;;;;;;;12.32;5.75;;;20.70;53.90;;;;;;5025987;28;20034;-44
2023/05/31 08:52:00;;;;;;;6.93;4.82;;;20.80;53.80;;;;;;5028896;28;20041;-47
2023/05/31 08:54:28;;;;;;;9.23;5.40;;;20.80;53.30;;;;;;5025728;28;20033;-46
2023/05/31 08:56:55;;;;;;;6.28;4.65;;;20.90;53.40;;;;;;5029752;28;20072;-46
2023/05/31 08:59:22;;;;;;;15.73;5.88;;;21.00;53.30;;;;;;5030289;28;20469;-44
2023/05/31 09:01:50;;;;;;;7.10;5.97;;;21.00;52.80;;;;;;5027070;28;20075;-48
2023/05/31 09:04:18;;;;;;;8.95;5.78;;;21.10;52.70;;;;;;5028732;28;20038;-44
2023/05/31 09:06:44;;;;;;;7.53;5.07;;;21.20;52.20;;;;;;5029910;28;20065;-46
2023/05/31 09:09:11;;;;;;;13.88;5.72;;;21.20;52.70;;;;;;5027504;28;20034;-44
2023/05/31 09:11:40;;;;;;;8.93;6.38;;;21.30;52.20;;;;;;5026589;28;20493;-46
2023/05/31 09:14:10;;;;;;;11.88;5.22;;;21.40;52.20;;;;;;5030428;28;20033;-43
2023/05/31 09:16:37;;;;;;;5.90;4.30;;;21.50;52.10;;;;;;5029342;28;20532;-47
2023/05/31 09:19:06;;;;;;;8.40;5.68;;;21.50;51.80;;;;;;5030042;28;20045;-46
2023/05/31 09:21:40;;;;;;;9.60;5.28;;;21.50;51.60;;;;;;5023782;28;20067;-46
2023/05/31 09:24:07;;;;;;;12.00;6.63;;;21.60;51.30;;;;;;5007138;28;20037;-46
2023/05/31 09:26:44;;;;;;;24.70;8.23;;;21.70;51.40;;;;;;5026023;28;20117;-44
2023/05/31 09:29:13;;;;;;;7.05;5.45;;;21.70;51.50;;;;;;5030136;28;20109;-45
2023/05/31 09:31:41;;;;;;;13.32;5.20;;;21.80;51.60;;;;;;5029322;28;20504;-48
2023/05/31 09:34:25;;;;;;;22.58;6.28;;;21.80;51.60;;;;;;5030284;28;20045;-46
2023/05/31 09:36:57;;;;;;;7.90;4.72;;;21.90;50.80;;;;;;5028956;28;20045;-45
2023/05/31 09:39:24;;;;;;;8.23;4.32;;;22.00;50.80;;;;;;5029569;28;20452;-48
2023/05/31 09:41:52;;;;;;;10.55;4.95;;;22.10;50.40;;;;;;5028469;28;20053;-45
2023/05/31 09:44:26;;;;;;;7.25;3.75;;;22.20;50.10;;;;;;5034591;28;20499;-45
2023/05/31 09:46:53;;;;;;;7.60;3.40;;;22.20;49.10;;;;;;5007245;28;20529;-44
2023/05/31 09:49:20;;;;;;;5.13;3.58;;;22.30;49.40;;;;;;5028289;28;20760;-45
2023/05/31 09:51:53;;;;;;;6.93;3.58;;;22.40;49.40;;;;;;5028407;28;20065;-47
2023/05/31 09:54:25;;;;;;;5.85;4.15;;;22.50;49.70;;;;;;5024817;28;20084;-46
2023/05/31 09:56:54;;;;;;;11.68;4.45;;;22.50;49.10;;;;;;5007642;28;20144;-47
2023/05/31 09:59:22;;;;;;;8.13;5.13;;;22.60;49.00;;;;;;5006852;28;20128;-44
2023/05/31 10:01:50;;;;;;;6.03;3.65;;;22.70;48.40;;;;;;5028398;28;20065;-48
2023/05/31 10:04:17;;;;;;;8.13;4.20;;;22.70;47.60;;;;;;5024974;28;20160;-45
2023/05/31 10:06:47;;;;;;;6.97;4.20;;;22.80;47.40;;;;;;5028282;28;20045;-48
2023/05/31 10:09:14;;;;;;;8.30;4.13;;;22.90;46.70;;;;;;5030760;28;20065;-44
2023/05/31 10:11:44;;;;;;;5.95;3.72;;;23.00;47.00;;;;;;5029715;28;20068;-47
2023/05/31 10:14:20;;;;;;;7.82;3.70;;;23.10;47.10;;;;;;5028663;28;20041;-46
2023/05/31 10:16:54;;;;;;;6.03;3.20;;;23.10;47.00;;;;;;5015629;28;20083;-48
2023/05/31 10:19:24;;;;;;;6.15;3.22;;;23.20;46.30;;;;;;5029184;28;20129;-44
2023/05/31 10:21:52;;;;;;;3.78;2.90;;;23.20;45.10;;;;;;5031828;28;20052;-47
2023/05/31 10:24:37;;;;;;;5.20;2.47;;;23.30;44.80;;;;;;5028734;28;20103;-44
2023/05/31 10:27:14;;;;;;;3.70;3.17;;;23.40;43.90;;;;;;5024963;28;20114;-44
2023/05/31 10:29:48;;;;;;;5.97;2.83;;;23.40;44.50;;;;;;5032060;28;20051;-44
2023/05/31 10:32:28;;;;;;;6.57;3.50;;;23.50;44.20;;;;;;5032914;28;20038;-45
2023/05/31 10:34:55;;;;;;;4.30;2.70;;;23.60;43.70;;;;;;5029063;28;20041;-45
2023/05/31 10:37:23;;;;;;;4.78;2.65;;;23.60;43.40;;;;;;5030665;28;20041;-47
2023/05/31 10:40:19;;;;;;;5.15;3.03;;;23.70;42.90;;;;;;5016160;28;20045;-49
2023/05/31 10:43:23;;;;;;;3.70;2.50;;;23.80;42.00;;;;;;5030981;28;20149;-45
2023/05/31 10:45:54;;;;;;;5.53;2.35;;;23.80;41.50;;;;;;5027912;28;20613;-47
2023/05/31 10:49:11;;;;;;;3.40;2.60;;;24.00;41.70;;;;;;5030615;28;20044;-43
2023/05/31 10:51:45;;;;;;;4.43;1.95;;;24.00;40.70;;;;;;4997248;28;20537;-46
2023/05/31 10:54:18;;;;;;;;;;;24.10;40.80;;;;;;5030126;28;20043;-45
2023/05/31 10:56:55;;;;;;;2.58;1.77;;;24.10;42.20;;;;;;5031720;28;19968;-44
2023/05/31 10:59:23;;;;;;;4.65;2.30;;;24.20;40.60;;;;;;5033695;28;20065;-45
2023/05/31 11:01:50;;;;;;;3.83;2.70;;;24.30;40.90;;;;;;5031240;28;20045;-45
2023/05/31 11:04:23;;;;;;;3.08;1.75;;;24.30;41.40;;;;;;5028313;28;20561;-47
2023/05/31 11:06:55;;;;;;;4.50;2.17;;;24.40;40.10;;;;;;5031089;28;20042;-49
2023/05/31 11:09:22;;;;;;;4.97;2.50;;;24.40;39.50;;;;;;5026481;28;20099;-45
2023/05/31 11:11:49;;;;;;;3.95;2.35;;;24.50;40.00;;;;;;5031716;28;20096;-44
2023/05/31 11:14:16;;;;;;;5.43;2.25;;;24.60;39.30;;;;;;5032169;28;20042;-45
2023/05/31 11:16:46;;;;;;;5.72;2.30;;;24.60;39.70;;;;;;5028854;28;20037;-48
2023/05/31 11:19:17;;;;;;;3.67;2.33;;;24.70;38.80;;;;;;5031598;28;20112;-45
2023/05/31 11:21:51;;;;;;;4.38;2.13;;;24.70;39.10;;;;;;5031524;28;20095;-44
2023/05/31 11:24:38;;;;;;;3.92;2.35;;;24.80;38.90;;;;;;5028886;28;20073;-46
2023/05/31 11:27:10;;;;;;;4.15;2.60;;;24.90;39.30;;;;;;5028082;28;20034;-44
2023/05/31 11:29:48;;;;;;;1.88;1.73;;;24.90;39.90;;;;;;5032137;28;20065;-44
2023/05/31 11:32:17;;;;;;;5.57;2.38;;;25.00;39.50;;;;;;5029479;28;20037;-49
2023/05/31 11:34:53;;;;;;;3.22;1.90;;;25.10;39.10;;;;;;5028869;28;20510;-44
2023/05/31 11:37:22;;;;;;;2.85;2.13;;;25.20;38.20;;;;;;5031334;28;20048;-44
2023/05/31 11:39:50;;;;;;;3.72;2.13;;;25.20;38.40;;;;;;5031091;28;20049;-46
2023/05/31 11:42:21;;;;;;;4.25;2.22;;;25.30;38.60;;;;;;5025690;28;20490;-45
2023/05/31 11:44:50;;;;;;;4.30;2.13;;;25.30;39.10;;;;;;5020968;28;20061;-47
2023/05/31 11:47:23;;;;;;;5.82;2.42;;;25.40;38.40;;;;;;5017523;28;20116;-48
2023/05/31 11:49:50;;;;;;;4.47;1.98;;;25.50;38.50;;;;;;5026856;28;20449;-46
2023/05/31 11:52:19;;;;;;;3.33;2.15;;;25.50;38.00;;;;;;5015042;28;20144;-47
2023/05/31 11:54:48;;;;;;;3.60;2.08;;;25.60;37.70;;;;;;5025476;28;20069;-45
2023/05/31 11:57:20;;;;;;;3.67;2.20;;;25.60;37.80;;;;;;5024104;28;20084;-46
2023/05/31 11:59:49;;;;;;;3.50;2.78;;;25.70;37.70;;;;;;5030358;28;20044;-48
2023/05/31 12:02:17;;;;;;;4.65;2.30;;;25.80;37.20;;;;;;5031185;28;20044;-47
2023/05/31 12:04:44;;;;;;;4.00;2.25;;;25.90;37.40;;;;;;5042925;23;20053;-45
2023/05/31 12:07:17;;;;;;;4.65;2.15;;;25.90;37.20;;;;;;5037190;28;20042;-47
2023/05/31 12:09:43;;;;;;;5.82;2.30;;;26.00;37.50;;;;;;5031897;28;20076;-42
2023/05/31 12:12:11;;;;;;;4.28;2.85;;;26.00;37.40;;;;;;5027459;28;20033;-47
2023/05/31 12:14:48;;;;;;;2.20;1.95;;;26.10;37.30;;;;;;5025524;28;20041;-48
2023/05/31 12:17:15;;;;;;;3.78;2.03;;;26.20;36.80;;;;;;5030281;28;20128;-46
2023/05/31 12:19:41;;;;;;;6.30;2.85;;;26.20;37.00;;;;;;5028626;28;20085;-48
2023/05/31 12:22:10;;;;;;;5.70;2.83;;;26.30;36.90;;;;;;5030584;28;20033;-47
2023/05/31 12:24:36;;;;;;;4.28;2.53;;;26.30;36.70;;;;;;5027841;28;20044;-45
2023/05/31 12:27:05;;;;;;;4.43;2.40;;;26.40;36.60;;;;;;5029877;28;20068;-47
2023/05/31 12:29:32;;;;;;;5.47;2.38;;;26.50;36.40;;;;;;5030038;28;20045;-47
2023/05/31 12:32:05;;;;;;;2.10;1.73;;;26.60;36.50;;;;;;5032371;28;20045;-46
2023/05/31 12:34:36;;;;;;;4.78;2.17;;;26.60;36.70;;;;;;5028029;28;20679;-44
2023/05/31 12:37:05;;;;;;;4.43;2.30;;;26.70;36.70;;;;;;5029764;28;20041;-44
2023/05/31 12:39:33;;;;;;;3.13;2.00;;;26.80;36.50;;;;;;5029426;28;20881;-46
2023/05/31 12:42:01;;;;;;;3.08;1.92;;;26.90;35.90;;;;;;5029591;28;20042;-44
2023/05/31 12:44:29;;;;;;;4.28;2.10;;;26.90;36.20;;;;;;5027653;28;20124;-45
2023/05/31 12:47:00;;;;;;;4.85;2.13;;;27.10;36.30;;;;;;5029583;28;20498;-48
2023/05/31 12:49:34;;;;;;;5.03;2.22;;;27.10;35.90;;;;;;5026240;28;20127;-44
2023/05/31 12:52:05;;;;;;;5.40;1.92;;;27.20;36.10;;;;;;4995939;28;20108;-46
2023/05/31 12:54:39;;;;;;;4.65;1.90;;;27.30;35.30;;;;;;5028450;28;20068;-45
2023/05/31 12:57:08;;;;;;;3.80;1.73;;;27.40;34.70;;;;;;5029363;28;20056;-47
2023/05/31 12:59:37;;;;;;;2.78;2.38;;;27.50;35.30;;;;;;5030249;28;20509;-44
2023/05/31 13:02:05;;;;;;;4.60;1.55;;;27.50;34.60;;;;;;5025378;28;20127;-47